DLH7HV EDDL-EDDM
Flight info
| Callsign | DLH7HV |
|---|---|
| Flight time | 0h 51m |
| Altitude | 35000 |
| Route | DODEN1T/23L DODEN Y853 BOMBI T104 ROKIL ROKIL1A |
| Aircraft | A20N/M-SDE2E3FGHIRWXY/LB1 |
Departure
| Time | 2026-05-04 18:17 |
|---|---|
| Airport | Düsseldorf Airport (EDDL) |
Arrival
| Time | 2026-05-04 19:09 |
|---|---|
| Airport | Munich Airport (EDDM) |
| Time | Latitude | Longitude | Altitude | Speed | Heading |
|---|---|---|---|---|---|
| 2026-05-04 17:34 | 51.28037 | 6.76366 | 125 ft | 0 kts | 197° |
| 2026-05-04 18:05 | 51.28047 | 6.76370 | 123 ft | 2 kts | 197° |
| 2026-05-04 18:05 | 51.28064 | 6.76379 | 123 ft | 3 kts | 197° |
| 2026-05-04 18:05 | 51.28084 | 6.76389 | 122 ft | 4 kts | 191° |
| 2026-05-04 18:06 | 51.28130 | 6.76350 | 122 ft | 4 kts | 120° |
| 2026-05-04 18:06 | 51.28144 | 6.76309 | 122 ft | 4 kts | 107° |
| 2026-05-04 18:06 | 51.28147 | 6.76265 | 123 ft | 4 kts | 75° |
| 2026-05-04 18:07 | 51.28136 | 6.76224 | 126 ft | 4 kts | 55° |
| 2026-05-04 18:07 | 51.28130 | 6.76213 | 122 ft | 0 kts | 55° |
| 2026-05-04 18:11 | 51.28131 | 6.76213 | 123 ft | 1 kts | 55° |
| 2026-05-04 18:11 | 51.28145 | 6.76242 | 125 ft | 6 kts | 45° |
| 2026-05-04 18:12 | 51.28192 | 6.76246 | 124 ft | 8 kts | 341° |
| 2026-05-04 18:12 | 51.28246 | 6.76263 | 127 ft | 10 kts | 45° |
| 2026-05-04 18:12 | 51.28295 | 6.76370 | 124 ft | 14 kts | 53° |
| 2026-05-04 18:12 | 51.28356 | 6.76499 | 122 ft | 16 kts | 53° |
| 2026-05-04 18:13 | 51.28428 | 6.76650 | 123 ft | 18 kts | 52° |
| 2026-05-04 18:13 | 51.28509 | 6.76820 | 127 ft | 20 kts | 53° |
| 2026-05-04 18:13 | 51.28704 | 6.77230 | 128 ft | 26 kts | 52° |
| 2026-05-04 18:14 | 51.28815 | 6.77462 | 126 ft | 25 kts | 53° |
| 2026-05-04 18:14 | 51.28914 | 6.77670 | 127 ft | 22 kts | 53° |
| 2026-05-04 18:14 | 51.29011 | 6.77874 | 129 ft | 23 kts | 53° |
| 2026-05-04 18:15 | 51.29124 | 6.78110 | 133 ft | 6 kts | 52° |
| 2026-05-04 18:15 | 51.29188 | 6.78243 | 137 ft | 8 kts | 53° |
| 2026-05-04 18:15 | 51.29231 | 6.78334 | 141 ft | 12 kts | 53° |
| 2026-05-04 18:16 | 51.29297 | 6.78474 | 147 ft | 18 kts | 53° |
| 2026-05-04 18:16 | 51.29397 | 6.78575 | 152 ft | 18 kts | 358° |
| 2026-05-04 18:16 | 51.29513 | 6.78507 | 150 ft | 20 kts | 286° |
| 2026-05-04 18:17 | 51.29176 | 6.77752 | 132 ft | 105 kts | 233° |
| 2026-05-04 18:17 | 51.28593 | 6.76534 | 148 ft | 168 kts | 231° |
| 2026-05-04 18:17 | 51.27228 | 6.73530 | 1937 ft | 168 kts | 231° |
| 2026-05-04 18:18 | 51.26500 | 6.71948 | 2586 ft | 183 kts | 231° |
| 2026-05-04 18:18 | 51.25711 | 6.70269 | 3197 ft | 200 kts | 232° |
| 2026-05-04 18:18 | 51.24821 | 6.68400 | 3725 ft | 223 kts | 231° |
| 2026-05-04 18:18 | 51.23833 | 6.66355 | 4288 ft | 246 kts | 231° |
| 2026-05-04 18:19 | 51.20844 | 6.63477 | 5974 ft | 263 kts | 186° |
| 2026-05-04 18:19 | 51.19021 | 6.63539 | 6870 ft | 268 kts | 175° |
| 2026-05-04 18:19 | 51.17140 | 6.63911 | 7734 ft | 277 kts | 172° |
| 2026-05-04 18:20 | 51.15262 | 6.64779 | 8378 ft | 290 kts | 150° |
| 2026-05-04 18:20 | 51.13739 | 6.66861 | 9086 ft | 287 kts | 130° |
| 2026-05-04 18:20 | 51.12911 | 6.69705 | 9337 ft | 286 kts | 105° |
| 2026-05-04 18:20 | 51.12873 | 6.72937 | 9603 ft | 299 kts | 89° |
| 2026-05-04 18:21 | 51.13092 | 6.76265 | 10418 ft | 303 kts | 86° |
| 2026-05-04 18:21 | 51.13341 | 6.79668 | 10978 ft | 319 kts | 87° |
| 2026-05-04 18:21 | 51.13566 | 6.83296 | 11487 ft | 336 kts | 88° |
| 2026-05-04 18:21 | 51.13734 | 6.87049 | 11980 ft | 349 kts | 89° |
| 2026-05-04 18:22 | 51.13859 | 6.90953 | 12818 ft | 353 kts | 89° |
| 2026-05-04 18:22 | 51.13994 | 6.94888 | 13687 ft | 356 kts | 89° |
| 2026-05-04 18:22 | 51.14137 | 6.98829 | 14399 ft | 361 kts | 89° |
| 2026-05-04 18:22 | 51.14283 | 7.02820 | 15114 ft | 365 kts | 89° |
| 2026-05-04 18:23 | 51.14430 | 7.06890 | 15831 ft | 369 kts | 89° |
| 2026-05-04 18:23 | 51.14576 | 7.11008 | 16531 ft | 374 kts | 89° |
| 2026-05-04 18:23 | 51.14721 | 7.15127 | 17182 ft | 379 kts | 89° |
| 2026-05-04 18:23 | 51.14861 | 7.19371 | 17822 ft | 384 kts | 92° |
| 2026-05-04 18:24 | 51.14550 | 7.23594 | 18457 ft | 382 kts | 109° |
| 2026-05-04 18:24 | 51.13502 | 7.27406 | 19025 ft | 382 kts | 122° |
| 2026-05-04 18:24 | 51.12181 | 7.31133 | 19593 ft | 386 kts | 123° |
| 2026-05-04 18:24 | 51.10825 | 7.34868 | 20176 ft | 390 kts | 123° |
| 2026-05-04 18:25 | 51.09469 | 7.38583 | 20722 ft | 395 kts | 123° |
| 2026-05-04 18:25 | 51.08081 | 7.42390 | 21278 ft | 399 kts | 123° |
| 2026-05-04 18:25 | 51.06691 | 7.46208 | 21839 ft | 403 kts | 123° |
| 2026-05-04 18:25 | 51.05275 | 7.50095 | 22391 ft | 407 kts | 123° |
| 2026-05-04 18:26 | 51.03842 | 7.54026 | 22954 ft | 411 kts | 123° |
| 2026-05-04 18:26 | 51.02410 | 7.57951 | 23480 ft | 415 kts | 123° |
| 2026-05-04 18:26 | 51.00942 | 7.61967 | 23858 ft | 422 kts | 123° |
| 2026-05-04 18:26 | 50.99465 | 7.66002 | 24386 ft | 423 kts | 123° |
| 2026-05-04 18:27 | 50.97931 | 7.69973 | 24878 ft | 423 kts | 129° |
| 2026-05-04 18:27 | 50.96026 | 7.73533 | 25344 ft | 420 kts | 140° |
| 2026-05-04 18:27 | 50.93798 | 7.76470 | 25812 ft | 417 kts | 150° |
| 2026-05-04 18:27 | 50.91356 | 7.78899 | 26285 ft | 417 kts | 153° |
| 2026-05-04 18:28 | 50.88875 | 7.81324 | 26761 ft | 419 kts | 153° |
| 2026-05-04 18:28 | 50.86380 | 7.83773 | 27224 ft | 421 kts | 153° |
| 2026-05-04 18:28 | 50.83906 | 7.86205 | 27655 ft | 423 kts | 153° |
| 2026-05-04 18:28 | 50.81387 | 7.88679 | 28098 ft | 425 kts | 153° |
| 2026-05-04 18:29 | 50.78870 | 7.91148 | 28526 ft | 427 kts | 153° |
| 2026-05-04 18:29 | 50.76327 | 7.93639 | 28937 ft | 429 kts | 153° |
| 2026-05-04 18:29 | 50.73803 | 7.96108 | 29320 ft | 431 kts | 153° |
| 2026-05-04 18:29 | 50.71325 | 7.98887 | 29554 ft | 441 kts | 145° |
| 2026-05-04 18:30 | 50.66778 | 8.05519 | 30247 ft | 448 kts | 142° |
| 2026-05-04 18:30 | 50.64494 | 8.08925 | 30573 ft | 450 kts | 142° |
| 2026-05-04 18:30 | 50.62197 | 8.12287 | 30894 ft | 452 kts | 142° |
| 2026-05-04 18:31 | 50.59899 | 8.15597 | 31230 ft | 452 kts | 143° |
| 2026-05-04 18:31 | 50.57569 | 8.18924 | 31726 ft | 449 kts | 143° |
| 2026-05-04 18:31 | 50.55257 | 8.22210 | 32226 ft | 446 kts | 143° |
| 2026-05-04 18:31 | 50.52945 | 8.25488 | 32648 ft | 445 kts | 143° |
| 2026-05-04 18:32 | 50.50666 | 8.28712 | 33049 ft | 444 kts | 143° |
| 2026-05-04 18:32 | 50.48344 | 8.31993 | 33475 ft | 443 kts | 143° |
| 2026-05-04 18:32 | 50.46079 | 8.35190 | 33867 ft | 442 kts | 143° |
| 2026-05-04 18:32 | 50.43768 | 8.38443 | 34054 ft | 445 kts | 143° |
| 2026-05-04 18:33 | 50.41476 | 8.41665 | 34278 ft | 446 kts | 143° |
| 2026-05-04 18:33 | 50.39168 | 8.44911 | 34591 ft | 445 kts | 143° |
| 2026-05-04 18:33 | 50.36850 | 8.48167 | 34849 ft | 445 kts | 143° |
| 2026-05-04 18:34 | 50.32251 | 8.54609 | 34966 ft | 441 kts | 143° |
| 2026-05-04 18:34 | 50.27690 | 8.60977 | 34968 ft | 439 kts | 143° |
| 2026-05-04 18:35 | 50.23120 | 8.67343 | 34967 ft | 440 kts | 143° |
| 2026-05-04 18:35 | 50.18548 | 8.73696 | 34966 ft | 440 kts | 143° |
| 2026-05-04 18:36 | 50.13998 | 8.80003 | 34966 ft | 440 kts | 143° |
| 2026-05-04 18:36 | 50.09430 | 8.86319 | 34966 ft | 439 kts | 143° |
| 2026-05-04 18:37 | 50.04853 | 8.92629 | 34965 ft | 439 kts | 143° |
| 2026-05-04 18:37 | 50.00262 | 8.98942 | 34964 ft | 439 kts | 143° |
| 2026-05-04 18:38 | 49.95696 | 9.05206 | 34965 ft | 439 kts | 143° |
| 2026-05-04 18:38 | 49.91125 | 9.11457 | 34946 ft | 439 kts | 143° |
| 2026-05-04 18:39 | 49.86514 | 9.17744 | 34972 ft | 443 kts | 143° |
| 2026-05-04 18:39 | 49.81866 | 9.24072 | 34964 ft | 441 kts | 143° |
| 2026-05-04 18:40 | 49.77269 | 9.30311 | 34970 ft | 440 kts | 143° |
| 2026-05-04 18:40 | 49.72669 | 9.36537 | 34972 ft | 441 kts | 143° |
| 2026-05-04 18:41 | 49.68035 | 9.42793 | 34968 ft | 440 kts | 143° |
| 2026-05-04 18:41 | 49.63449 | 9.48969 | 34950 ft | 440 kts | 143° |
| 2026-05-04 18:42 | 49.59585 | 9.54158 | 34958 ft | 440 kts | 143° |
| 2026-05-04 18:42 | 49.54213 | 9.61355 | 34957 ft | 440 kts | 143° |
| 2026-05-04 18:43 | 49.49593 | 9.67525 | 34971 ft | 440 kts | 143° |
| 2026-05-04 18:43 | 49.45739 | 9.72662 | 34955 ft | 440 kts | 143° |
| 2026-05-04 18:44 | 49.41127 | 9.78798 | 34711 ft | 437 kts | 143° |
| 2026-05-04 18:44 | 49.39592 | 9.80836 | 34467 ft | 438 kts | 143° |
| 2026-05-04 18:44 | 49.36674 | 9.85302 | 33969 ft | 446 kts | 136° |
| 2026-05-04 18:44 | 49.34623 | 9.88854 | 33556 ft | 448 kts | 135° |
| 2026-05-04 18:45 | 49.32554 | 9.92449 | 33146 ft | 449 kts | 135° |
| 2026-05-04 18:45 | 49.30483 | 9.96038 | 32740 ft | 448 kts | 136° |
| 2026-05-04 18:45 | 49.28432 | 9.99577 | 32348 ft | 448 kts | 136° |
| 2026-05-04 18:45 | 49.26354 | 10.03151 | 31957 ft | 449 kts | 136° |
| 2026-05-04 18:46 | 49.24268 | 10.06729 | 31572 ft | 451 kts | 136° |
| 2026-05-04 18:46 | 49.22164 | 10.10330 | 31191 ft | 451 kts | 136° |
| 2026-05-04 18:46 | 49.20067 | 10.13916 | 30816 ft | 452 kts | 136° |
| 2026-05-04 18:46 | 49.17958 | 10.17522 | 30452 ft | 452 kts | 136° |
| 2026-05-04 18:47 | 49.15890 | 10.21061 | 30082 ft | 450 kts | 136° |
| 2026-05-04 18:47 | 49.13799 | 10.24631 | 29647 ft | 450 kts | 136° |
| 2026-05-04 18:47 | 49.11685 | 10.28112 | 29285 ft | 447 kts | 137° |
| 2026-05-04 18:47 | 49.09538 | 10.31548 | 28793 ft | 443 kts | 137° |
| 2026-05-04 18:48 | 49.07409 | 10.34936 | 28186 ft | 439 kts | 137° |
| 2026-05-04 18:48 | 49.05323 | 10.38259 | 27560 ft | 435 kts | 137° |
| 2026-05-04 18:48 | 49.03243 | 10.41581 | 27031 ft | 429 kts | 137° |
| 2026-05-04 18:48 | 49.01183 | 10.44876 | 26413 ft | 426 kts | 137° |
| 2026-05-04 18:49 | 48.99168 | 10.48095 | 25818 ft | 422 kts | 137° |
| 2026-05-04 18:49 | 48.97143 | 10.51324 | 25227 ft | 419 kts | 137° |
| 2026-05-04 18:49 | 48.95132 | 10.54527 | 24648 ft | 416 kts | 137° |
| 2026-05-04 18:49 | 48.93158 | 10.57667 | 24097 ft | 413 kts | 136° |
| 2026-05-04 18:50 | 48.91169 | 10.60829 | 23527 ft | 409 kts | 137° |
| 2026-05-04 18:50 | 48.89205 | 10.63949 | 22899 ft | 406 kts | 136° |
| 2026-05-04 18:50 | 48.87271 | 10.67016 | 22287 ft | 402 kts | 136° |
| 2026-05-04 18:50 | 48.85337 | 10.70081 | 21673 ft | 399 kts | 136° |
| 2026-05-04 18:51 | 48.83428 | 10.73102 | 21075 ft | 396 kts | 136° |
| 2026-05-04 18:51 | 48.81520 | 10.76118 | 20488 ft | 393 kts | 136° |
| 2026-05-04 18:51 | 48.79654 | 10.79061 | 19922 ft | 390 kts | 137° |
| 2026-05-04 18:51 | 48.77777 | 10.82014 | 19435 ft | 385 kts | 137° |
| 2026-05-04 18:52 | 48.75908 | 10.84943 | 18878 ft | 382 kts | 137° |
| 2026-05-04 18:52 | 48.74078 | 10.87810 | 18338 ft | 380 kts | 137° |
| 2026-05-04 18:52 | 48.72151 | 10.90547 | 17763 ft | 375 kts | 140° |
| 2026-05-04 18:52 | 48.70285 | 10.93193 | 17430 ft | 369 kts | 140° |
| 2026-05-04 18:53 | 48.68385 | 10.95885 | 17158 ft | 373 kts | 140° |
| 2026-05-04 18:53 | 48.66486 | 10.98550 | 16999 ft | 371 kts | 140° |
| 2026-05-04 18:53 | 48.64585 | 11.01197 | 16923 ft | 370 kts | 140° |
| 2026-05-04 18:53 | 48.62703 | 11.03805 | 16946 ft | 371 kts | 141° |
| 2026-05-04 18:54 | 48.60790 | 11.06446 | 16946 ft | 371 kts | 141° |
| 2026-05-04 18:54 | 48.58879 | 11.09080 | 16927 ft | 371 kts | 141° |
| 2026-05-04 18:54 | 48.57003 | 11.11666 | 16694 ft | 364 kts | 141° |
| 2026-05-04 18:54 | 48.55142 | 11.14229 | 16319 ft | 357 kts | 141° |
| 2026-05-04 18:55 | 48.53336 | 11.16715 | 15927 ft | 351 kts | 141° |
| 2026-05-04 18:55 | 48.49785 | 11.21592 | 15181 ft | 338 kts | 141° |
| 2026-05-04 18:55 | 48.48054 | 11.23965 | 14801 ft | 333 kts | 141° |
| 2026-05-04 18:56 | 48.46372 | 11.26268 | 14458 ft | 328 kts | 141° |
| 2026-05-04 18:56 | 48.44692 | 11.28567 | 14090 ft | 323 kts | 141° |
| 2026-05-04 18:56 | 48.43055 | 11.30881 | 13721 ft | 321 kts | 135° |
| 2026-05-04 18:56 | 48.41939 | 11.33752 | 13333 ft | 324 kts | 111° |
| 2026-05-04 18:57 | 48.41657 | 11.37124 | 12992 ft | 326 kts | 88° |
| 2026-05-04 18:57 | 48.41906 | 11.40467 | 12668 ft | 321 kts | 86° |
| 2026-05-04 18:57 | 48.42192 | 11.43778 | 12407 ft | 314 kts | 85° |
| 2026-05-04 18:57 | 48.42474 | 11.47053 | 12150 ft | 315 kts | 86° |
| 2026-05-04 18:58 | 48.42744 | 11.50309 | 11892 ft | 315 kts | 86° |
| 2026-05-04 18:58 | 48.43005 | 11.53536 | 11633 ft | 312 kts | 86° |
| 2026-05-04 18:58 | 48.43265 | 11.56811 | 11383 ft | 312 kts | 86° |
| 2026-05-04 18:58 | 48.43520 | 11.60049 | 11088 ft | 310 kts | 86° |
| 2026-05-04 18:59 | 48.43769 | 11.63238 | 10803 ft | 309 kts | 86° |
| 2026-05-04 18:59 | 48.44020 | 11.66462 | 10499 ft | 307 kts | 86° |
| 2026-05-04 18:59 | 48.44266 | 11.69633 | 10206 ft | 306 kts | 86° |
| 2026-05-04 18:59 | 48.44512 | 11.72834 | 9831 ft | 306 kts | 85° |
| 2026-05-04 19:00 | 48.44753 | 11.75987 | 9448 ft | 304 kts | 85° |
| 2026-05-04 19:00 | 48.44994 | 11.79145 | 9059 ft | 301 kts | 85° |
| 2026-05-04 19:00 | 48.45234 | 11.82280 | 8681 ft | 299 kts | 85° |
| 2026-05-04 19:00 | 48.45467 | 11.85345 | 8301 ft | 296 kts | 85° |
| 2026-05-04 19:01 | 48.45700 | 11.88406 | 8002 ft | 291 kts | 85° |
| 2026-05-04 19:01 | 48.45927 | 11.91411 | 7696 ft | 286 kts | 85° |
| 2026-05-04 19:01 | 48.46151 | 11.94368 | 7396 ft | 278 kts | 85° |
| 2026-05-04 19:01 | 48.46363 | 11.97190 | 7099 ft | 267 kts | 85° |
| 2026-05-04 19:02 | 48.46568 | 11.99922 | 6806 ft | 257 kts | 85° |
| 2026-05-04 19:02 | 48.46764 | 12.02546 | 6527 ft | 252 kts | 85° |
| 2026-05-04 19:02 | 48.46959 | 12.05178 | 6234 ft | 250 kts | 85° |
| 2026-05-04 19:02 | 48.47149 | 12.07751 | 5934 ft | 248 kts | 85° |
| 2026-05-04 19:03 | 48.47338 | 12.10340 | 5631 ft | 246 kts | 86° |
| 2026-05-04 19:03 | 48.47102 | 12.12849 | 5325 ft | 241 kts | 116° |
| 2026-05-04 19:03 | 48.46085 | 12.14759 | 5024 ft | 237 kts | 146° |
| 2026-05-04 19:03 | 48.44569 | 12.15591 | 4765 ft | 231 kts | 173° |
| 2026-05-04 19:04 | 48.42980 | 12.15678 | 4496 ft | 226 kts | 191° |
| 2026-05-04 19:04 | 48.41609 | 12.14662 | 4241 ft | 223 kts | 225° |
| 2026-05-04 19:04 | 48.40655 | 12.12853 | 4050 ft | 217 kts | 234° |
| 2026-05-04 19:04 | 48.39781 | 12.10981 | 3995 ft | 219 kts | 234° |
| 2026-05-04 19:05 | 48.39061 | 12.08996 | 3997 ft | 219 kts | 249° |
| 2026-05-04 19:05 | 48.38656 | 12.06774 | 3992 ft | 220 kts | 259° |
| 2026-05-04 19:05 | 48.38423 | 12.04497 | 3995 ft | 220 kts | 262° |
| 2026-05-04 19:05 | 48.38240 | 12.02222 | 3997 ft | 212 kts | 263° |
| 2026-05-04 19:06 | 48.38072 | 12.00058 | 3819 ft | 211 kts | 263° |
| 2026-05-04 19:06 | 48.37902 | 11.97856 | 3531 ft | 211 kts | 263° |
| 2026-05-04 19:06 | 48.37737 | 11.95717 | 3292 ft | 204 kts | 264° |
| 2026-05-04 19:06 | 48.37576 | 11.93621 | 3004 ft | 198 kts | 263° |
| 2026-05-04 19:07 | 48.37421 | 11.91617 | 2743 ft | 184 kts | 264° |
| 2026-05-04 19:07 | 48.37280 | 11.89785 | 2514 ft | 167 kts | 264° |
| 2026-05-04 19:07 | 48.37154 | 11.88155 | 2276 ft | 152 kts | 264° |
| 2026-05-04 19:07 | 48.37039 | 11.86632 | 2046 ft | 140 kts | 264° |
| 2026-05-04 19:08 | 48.36930 | 11.85183 | 1840 ft | 140 kts | 264° |
| 2026-05-04 19:08 | 48.36814 | 11.83759 | 1707 ft | 138 kts | 264° |
| 2026-05-04 19:08 | 48.36699 | 11.82320 | 1540 ft | 137 kts | 265° |
| 2026-05-04 19:08 | 48.36599 | 11.80943 | 1476 ft | 124 kts | 264° |
| 2026-05-04 19:09 | 48.36527 | 11.79963 | 1478 ft | 63 kts | 263° |
| 2026-05-04 19:09 | 48.36479 | 11.79353 | 1481 ft | 52 kts | 264° |
| 2026-05-04 19:09 | 48.36423 | 11.78971 | 1477 ft | 22 kts | 247° |
| 2026-05-04 19:09 | 48.36336 | 11.78778 | 1485 ft | 23 kts | 233° |
| 2026-05-04 19:10 | 48.36241 | 11.78581 | 1479 ft | 21 kts | 233° |
| 2026-05-04 19:10 | 48.36129 | 11.78471 | 1485 ft | 19 kts | 179° |
| 2026-05-04 19:10 | 48.36029 | 11.78539 | 1482 ft | 9 kts | 105° |
| 2026-05-04 19:10 | 48.36036 | 11.78598 | 1478 ft | 6 kts | 84° |
| 2026-05-04 19:11 | 48.36042 | 11.78682 | 1485 ft | 10 kts | 84° |
| 2026-05-04 19:11 | 48.36052 | 11.78806 | 1481 ft | 14 kts | 83° |
| 2026-05-04 19:11 | 48.36066 | 11.78972 | 1479 ft | 17 kts | 83° |
| 2026-05-04 19:11 | 48.36081 | 11.79158 | 1481 ft | 17 kts | 83° |
| 2026-05-04 19:12 | 48.36070 | 11.79325 | 1477 ft | 14 kts | 138° |